Terminal Aerodrome Forecast
Issued by NWS

Home | Current Version | Previous Version | Text Only | Print | Product List | Glossary On
Versions: 1 2 3 4 5 6 7 8 9 10 11 12 13 14 15
000
FTUS41 KAKQ 011858 AAA
TAFPHF
TAF AMD
KPHF 011858Z 0119/0218 10010KT P6SM SKC
     FM020100 00000KT P6SM SKC
     FM021400 22009KT P6SM SCT250=

USA.gov is the U.S. government's official web portal to all federal, state and local government web resources and services.